Flight Track Log - Related Links

Times and Time Zones

All times are in EDT time to prevent confusion due to time zone crossing. See the EJA831 flight status page for this flight to view local times or setup timezone preferences in your user account.

Time Position Orientation Groundspeed Altitude Reporting Facility
EDT Latitude Longitude Course Direction KTS MPH feet Rate Location/Type
Sun 04:15:32 PM 32.1947 -81.0414 53° Northeast 289 333 9,500  Level Jacksonville Center
Sun 04:16:33 PM 32.2519 -80.9617 50° Northeast 311 358 11,000 2,250 Climbing Jacksonville Center
Sun 04:17:32 PM 32.3092 -80.8819 50° Northeast 336 387 14,000 3,025 Climbing Jacksonville Center
Sun 04:18:32 PM 32.3767 -80.7844 51° Northeast 348 400 17,000 2,250 Climbing Jacksonville Center
Sun 04:19:00 PM 32.5470 -80.5512 53° Northeast  Level FlightAware Approximate
Sun 04:19:32 PM 32.4378 -80.6969 50° Northeast 365 420 18,500  Level Jacksonville Center
Sun 04:20:00 PM 32.6180 -80.4405 53° Northeast  Level FlightAware Approximate
Sun 04:20:32 PM 32.5069 -80.5967 51° Northeast 379 436 20,800  Level Jacksonville Center
Sun 04:21:32 PM 32.5800 -80.4914 51° Northeast 392 451 22,700 1,200 Climbing Jacksonville Center
Sun 04:22:32 PM 32.6572 -80.3783 51° Northeast 412 474 23,200 1,300 Climbing Jacksonville Center
Sun 04:23:32 PM 32.7383 -80.2625 50° Northeast 436 502 25,300 1,800 Climbing Jacksonville Center
Sun 04:24:32 PM 32.8172 -80.1489 50° Northeast 447 514 26,800 1,750 Climbing Jacksonville Center
Sun 04:25:32 PM 32.9147 -80.0247 47° Northeast 455 524 28,800 1,950 Climbing Jacksonville Center
Sun 04:26:32 PM 33.0256 -79.9419 32° Northeast 455 524 30,700 1,750 Climbing Jacksonville Center
Sun 04:27:32 PM 33.1322 -79.8639 31° Northeast 450 518 32,300 1,150 Climbing Jacksonville Center
Sun 04:28:32 PM 33.2431 -79.7831 31° Northeast 450 518 33,000 233 Climbing Jacksonville Center
Sun 04:30:00 PM 33.3831 -79.6635 27° Northeast  Level FlightAware Approximate
Sun 04:30:32 PM 33.4786 -79.6131 27° Northeast 480 552 33,000  Level Jacksonville Center
Sun 04:31:32 PM 33.5933 -79.5264 32° Northeast 485 558 33,000  Level Jacksonville Center
Sun 04:32:32 PM 33.7100 -79.4397 32° Northeast 485 558 33,000  Level Jacksonville Center
Sun 04:33:32 PM 33.8122 -79.3658 31° Northeast 480 552 33,000  Level Jacksonville Center
Sun 04:34:32 PM 33.9308 -79.2783 31° Northeast 480 552 33,000 450 Level Jacksonville Center
Sun 04:35:32 PM 34.0492 -79.1933 31° Northeast 486 559 33,900 635 Climbing Jacksonville Center
Sun 04:37:41 PM 34.3069 -78.9986 32° Northeast 477 549 35,000 349 Climbing Washington Center
Sun 04:38:41 PM 34.4219 -78.9103 32° Northeast 488 562 35,000  Level Washington Center
Sun 04:39:41 PM 34.5372 -78.8192 33° Northeast 488 562 35,000  Level Washington Center
Sun 04:40:41 PM 34.6522 -78.7328 32° Northeast 488 562 35,000  Level Washington Center
Sun 04:41:41 PM 34.7714 -78.6439 31° Northeast 493 567 35,000  Level Washington Center
Sun 04:42:41 PM 34.8842 -78.5544 33° Northeast 493 567 35,000  Level Washington Center
Sun 04:43:41 PM 35.0011 -78.4647 32° Northeast 487 560 35,000  Level Washington Center
Sun 04:44:41 PM 35.1158 -78.3775 32° Northeast 487 560 35,000  Level Washington Center
Sun 04:45:41 PM 35.2158 -78.2969 33° Northeast 487 560 35,000  Level Washington Center
Sun 04:46:41 PM 35.3242 -78.2142 32° Northeast 468 539 35,000  Level Washington Center
Sun 04:47:41 PM 35.4281 -78.1333 32° Northeast 457 526 35,000  Level Washington Center
Sun 04:48:41 PM 35.5361 -78.0500 32° Northeast 452 520 35,000  Level Washington Center
Sun 04:49:41 PM 35.6442 -77.9692 31° Northeast 452 520 35,000  Level Washington Center
Sun 04:50:41 PM 35.7572 -77.9519 North 429 494 35,000 -50 Level Washington Center
Sun 04:51:41 PM 35.8564 -78.0061 336° Northwest 372 428 34,900 -1,600 Descending Washington Center
Sun 04:52:41 PM 35.9511 -78.0656 333° Northwest 363 418 31,800 -3,000 Descending Washington Center
Sun 04:53:41 PM 36.0694 -78.0897 351° North 392 451 28,900 -2,250 Descending Washington Center
Sun 04:54:41 PM 36.1958 -78.0294 21° North 431 496 27,300 -950 Descending Washington Center
Sun 04:55:41 PM 36.3225 -77.9611 23° Northeast 446 513 27,000 -150 Descending Washington Center
Sun 04:56:41 PM 36.4553 -77.8878 24° Northeast 470 541 27,000  Level Washington Center
Sun 04:57:41 PM 36.5778 -77.8214 24° Northeast 475 547 27,000  Level Washington Center
Sun 04:58:41 PM 36.7039 -77.7578 22° Northeast 480 552 27,000  Level Washington Center
Sun 04:59:41 PM 36.8242 -77.6911 24° Northeast 480 552 27,000  Level Washington Center
Sun 05:00:41 PM 36.9483 -77.6242 23° Northeast 480 552 27,000 -500 Level Washington Center
Sun 05:01:41 PM 37.0725 -77.5572 23° Northeast 480 552 26,000 -950 Descending Washington Center
Sun 05:02:41 PM 37.1925 -77.4925 23° Northeast 480 552 25,100 -500 Descending Washington Center
Sun 05:03:41 PM 37.3103 -77.4250 25° Northeast 469 540 25,000 -200 Descending Washington Center
Sun 05:04:41 PM 37.4303 -77.3597 23° Northeast 463 533 24,700 -950 Descending Washington Center
Sun 05:05:41 PM 37.5497 -77.3128 17° North 456 525 23,100 -1,100 Descending Washington Center
Sun 05:06:41 PM 37.6692 -77.2867 10° North 442 509 22,500 -1,050 Descending Washington Center
Sun 05:07:41 PM 37.7883 -77.2631 North 430 495 21,000 -750 Descending Washington Center
Sun 05:08:41 PM 37.9056 -77.2367 10° North 425 489 21,000  Level Washington Center
Sun 05:09:41 PM 38.0206 -77.2128 North 425 489 21,000 -650 Level Washington Center
Sun 05:10:41 PM 38.1333 -77.1942 North 420 483 19,700 -1,600 Descending Washington Center
Sun 05:11:41 PM 38.2442 -77.1675 11° North 410 472 17,800 -1,900 Descending Washington Center
Sun 05:12:41 PM 38.3383 -77.1508 North 394 453 15,900 -1,850 Descending Washington Center
Sun 05:13:41 PM 38.4247 -77.0839 31° Northeast 361 415 14,100 -1,750 Descending Washington Center
Sun 05:14:41 PM 38.4967 -76.9978 43° Northeast 354 407 12,400 -1,450 Descending Washington Center
Sun 05:15:41 PM 38.5683 -76.9114 43° Northeast 349 402 11,200 -1,100 Descending Washington Center
Sun 05:16:41 PM 38.6317 -76.8356 43° Northeast 330 380 10,200 -1,000 Descending Washington Center
Sun 05:17:41 PM 38.6908 -76.7619 44° Northeast 309 356 9,200 -1,050 Descending Washington Center
Sun 05:18:41 PM 38.7311 -76.6800 58° Northeast 286 329 8,100 -1,210 Descending Washington Center
Sun 05:19:40 PM 38.7833 -76.5833 55° Northeast 266 306 6,800 -1,261 Descending Potomac TRACON
Sun 05:20:40 PM 38.8333 -76.5167 46° Northeast 261 300 5,600 -1,339 Descending Potomac TRACON
Sun 05:21:41 PM 38.8833 -76.4833 27° Northeast 247 284 4,100 -843 Descending Potomac TRACON
Sun 05:22:41 PM 38.9500 -76.4333 30° Northeast 245 282 3,900 -400 Descending Potomac TRACON
Sun 05:23:41 PM 39.0000 -76.4000 27° Northeast 225 259 3,300 -500 Descending Potomac TRACON
Sun 05:24:41 PM 39.0500 -76.3833 15° North 203 234 2,900 -198 Descending Potomac TRACON
Sun 05:25:42 PM 39.1167 -76.3833 360° North 193 222 2,900 -50 Level Potomac TRACON
Sun 05:26:42 PM 39.1667 -76.4000 346° North 184 212 2,800 -450 Descending Potomac TRACON
Sun 05:27:42 PM 39.2000 -76.4167 339° North 188 216 2,000 -397 Descending Potomac TRACON
Sun 05:28:43 PM 39.2667 -76.4333 349° North 175 201 2,000 -198 Level Potomac TRACON
Sun 05:29:43 PM 39.3000 -76.4500 339° North 160 184 1,600 -200 Descending Potomac TRACON
Sun 05:30:43 PM 39.3333 -76.4833 322° Northwest 142 163 1,600 -450 Level Potomac TRACON
Sun 05:31:43 PM 39.3500 -76.4500 57° Northeast 132 152 700 -900 Descending Potomac TRACON
Sun 05:33:00 PM 39.3257 -76.4138 104° East  Level Estimated
Sun 05:40:00 PM 39.3257 -76.4138 104° East  Level Estimated
Sun 05:41:00 PM 39.3257 -76.4138 104° East  Level Estimated
Sun 05:42:00 PM 39.3257 -76.4138 104° East  Level Estimated
Sun 05:43:00 PM 39.3257 -76.4138 104° East  Level Estimated
Sun 05:44:00 PM 39.3257 -76.4138 104° East  Level Estimated
Sun 05:45:00 PM 39.3257 -76.4138 104° East  Level Estimated
Sun 05:46:00 PM 39.3257 -76.4138 104° East  Level Estimated

Login

Don't have an account? Register now (free) for customized features, flight alerts, and more!